createdAt,value
2023-01-30T00:02:16.625Z,1.90
2023-01-30T00:05:17.952Z,3.00
2023-01-30T00:08:19.602Z,4.13
2023-01-30T00:11:21.254Z,3.47
2023-01-30T00:14:22.540Z,3.10
2023-01-30T00:17:23.881Z,4.22
2023-01-30T00:20:25.143Z,3.28
2023-01-30T00:23:27.151Z,2.42
2023-01-30T00:26:28.508Z,3.53
2023-01-30T00:29:29.825Z,2.92
2023-01-30T00:32:31.247Z,2.28
2023-01-30T00:35:32.662Z,2.17
2023-01-30T00:38:34.015Z,1.90
2023-01-30T00:41:54.007Z,2.83
2023-01-30T00:45:13.714Z,3.25
2023-01-30T00:48:14.948Z,3.53
2023-01-30T00:51:16.255Z,3.70
2023-01-30T00:54:17.515Z,2.60
2023-01-30T00:57:18.851Z,2.70
2023-01-30T01:00:20.871Z,3.33
2023-01-30T01:03:22.531Z,4.25
2023-01-30T01:06:23.919Z,3.40
2023-01-30T01:09:25.214Z,3.25
2023-01-30T01:12:26.484Z,4.03
2023-01-30T01:15:28.125Z,2.90
2023-01-30T01:18:29.496Z,3.30
2023-01-30T01:21:30.795Z,4.18
2023-01-30T01:24:32.091Z,3.63
2023-01-30T01:27:33.454Z,4.10
2023-01-30T01:30:34.793Z,1.75
2023-01-30T01:33:36.382Z,2.67
2023-01-30T01:36:54.160Z,2.05
2023-01-30T01:43:20.382Z,2.08
2023-01-30T01:46:23.440Z,2.50
2023-01-30T01:49:32.660Z,2.22
2023-01-30T01:52:33.972Z,2.80
2023-01-30T01:55:35.513Z,2.15
2023-01-30T01:58:57.950Z,3.78
2023-01-30T02:02:01.219Z,3.30
2023-01-30T02:05:02.926Z,2.58
2023-01-30T02:08:13.092Z,2.85
2023-01-30T02:11:16.927Z,2.90
2023-01-30T02:14:19.496Z,2.40
2023-01-30T02:17:20.765Z,2.72
2023-01-30T02:20:25.295Z,1.83
2023-01-30T02:23:36.104Z,2.25
2023-01-30T02:27:02.669Z,2.13
2023-01-30T02:30:06.692Z,2.20
2023-01-30T02:33:19.241Z,3.38
2023-01-30T02:36:36.529Z,2.83
2023-01-30T02:39:43.872Z,2.13
2023-01-30T02:42:45.140Z,2.45
2023-01-30T02:45:55.466Z,2.33
2023-01-30T02:49:02.629Z,3.38
2023-01-30T02:52:05.168Z,2.90
2023-01-30T02:55:17.439Z,2.97
2023-01-30T02:58:20.261Z,2.40
2023-01-30T03:01:24.556Z,3.30
2023-01-30T03:04:36.139Z,2.00
2023-01-30T03:07:40.465Z,2.17
2023-01-30T03:11:02.050Z,2.78
2023-01-30T03:14:15.444Z,2.45
2023-01-30T03:17:18.240Z,2.35
2023-01-30T03:20:20.100Z,2.58
2023-01-30T03:23:21.362Z,2.83
2023-01-30T03:26:24.724Z,1.50
2023-01-30T03:29:26.100Z,2.15
2023-01-30T03:32:27.338Z,3.83
2023-01-30T03:35:29.486Z,1.65
2023-01-30T03:38:30.731Z,2.90
2023-01-30T03:41:32.035Z,2.95
2023-01-30T03:44:33.315Z,3.60
2023-01-30T03:47:34.588Z,3.30
2023-01-30T03:50:35.888Z,4.30
2023-01-30T03:53:37.168Z,2.85
2023-01-30T03:56:38.440Z,2.67
2023-01-30T03:59:39.906Z,2.55
2023-01-30T04:02:41.259Z,3.63
2023-01-30T04:05:42.958Z,2.03
2023-01-30T04:08:44.230Z,3.53
2023-01-30T04:11:45.485Z,2.40
2023-01-30T04:14:46.783Z,3.67
2023-01-30T04:17:48.126Z,2.22
2023-01-30T04:20:49.437Z,2.88
2023-01-30T04:23:50.817Z,3.22
2023-01-30T04:26:52.053Z,2.67
2023-01-30T04:29:53.340Z,2.90
2023-01-30T04:32:54.599Z,2.88
2023-01-30T04:35:56.803Z,2.58
2023-01-30T04:38:58.230Z,2.28
2023-01-30T04:41:59.483Z,3.33
2023-01-30T04:45:00.702Z,2.70
2023-01-30T04:48:01.966Z,3.28
2023-01-30T04:51:03.353Z,2.80
2023-01-30T04:54:04.911Z,2.80
2023-01-30T04:57:06.181Z,3.55
2023-01-30T05:00:07.852Z,2.50
2023-01-30T05:03:09.105Z,2.33
2023-01-30T05:06:10.377Z,3.63
2023-01-30T05:09:11.715Z,3.03
2023-01-30T05:12:12.991Z,2.55
2023-01-30T05:15:14.523Z,3.60
2023-01-30T05:18:15.789Z,2.65
2023-01-30T05:21:22.498Z,2.15
2023-01-30T05:24:23.859Z,5.07
2023-01-30T05:27:25.216Z,2.45
2023-01-30T05:30:26.543Z,2.13
2023-01-30T05:33:28.027Z,2.45
2023-01-30T05:36:29.263Z,3.10
2023-01-30T05:39:30.527Z,3.13
2023-01-30T05:42:31.886Z,1.98
2023-01-30T05:45:33.204Z,2.53
2023-01-30T05:48:34.464Z,3.03
2023-01-30T05:51:35.754Z,3.10
2023-01-30T05:54:37.086Z,3.17
2023-01-30T05:57:38.422Z,2.28
2023-01-30T06:00:39.670Z,2.70
2023-01-30T06:03:40.959Z,4.90
2023-01-30T06:06:42.238Z,2.65
2023-01-30T06:09:43.645Z,4.88
2023-01-30T06:12:44.936Z,3.08
2023-01-30T06:15:46.551Z,2.45
2023-01-30T06:18:47.971Z,1.98
2023-01-30T06:21:49.218Z,3.63
2023-01-30T06:24:50.466Z,1.90
2023-01-30T06:27:51.720Z,2.38
2023-01-30T06:30:53.905Z,3.03
2023-01-30T06:33:55.217Z,2.97
2023-01-30T06:36:56.494Z,3.03
2023-01-30T06:39:57.771Z,1.98
2023-01-30T06:42:59.015Z,2.90
2023-01-30T06:46:01.797Z,1.40
2023-01-30T06:49:03.103Z,3.75
2023-01-30T06:52:04.485Z,2.47
2023-01-30T06:55:06.023Z,2.30
2023-01-30T06:58:08.475Z,1.95
2023-01-30T07:01:09.753Z,2.33
2023-01-30T07:04:11.280Z,2.83
2023-01-30T07:07:12.531Z,2.92
2023-01-30T07:10:13.887Z,2.40
2023-01-30T07:13:15.574Z,2.65
2023-01-30T07:16:17.007Z,2.90
2023-01-30T07:19:18.335Z,3.22
2023-01-30T07:22:19.578Z,3.47
2023-01-30T07:25:21.797Z,2.92
2023-01-30T07:28:23.091Z,2.45
2023-01-30T07:31:24.369Z,2.72
2023-01-30T07:34:25.696Z,3.33
2023-01-30T07:37:26.972Z,4.20
2023-01-30T07:40:28.347Z,3.67
2023-01-30T07:43:29.604Z,2.70
2023-01-30T07:46:34.888Z,1.90
2023-01-30T07:49:36.213Z,2.53
2023-01-30T07:52:38.511Z,2.63
2023-01-30T07:55:40.093Z,1.27
2023-01-30T07:58:41.387Z,2.55
2023-01-30T08:01:42.712Z,1.60
2023-01-30T08:04:44.036Z,3.28
2023-01-30T08:07:47.384Z,4.63
2023-01-30T08:10:49.142Z,3.60
2023-01-30T08:13:50.513Z,3.75
2023-01-30T08:16:52.318Z,2.70
2023-01-30T08:19:53.707Z,2.88
2023-01-30T08:22:55.314Z,3.17
2023-01-30T08:25:57.336Z,3.30
2023-01-30T08:28:58.781Z,2.10
2023-01-30T08:32:00.622Z,2.72
2023-01-30T08:35:01.870Z,2.72
2023-01-30T08:38:07.067Z,3.03
2023-01-30T08:44:10.233Z,2.75
2023-01-30T08:47:11.516Z,2.08
2023-01-30T08:50:12.816Z,2.05
2023-01-30T08:53:14.136Z,2.83
2023-01-30T08:56:15.399Z,3.38
2023-01-30T08:59:16.780Z,2.88
2023-01-30T09:02:18.148Z,4.32
2023-01-30T09:05:19.472Z,3.35
2023-01-30T09:08:20.716Z,2.63
2023-01-30T09:11:22.008Z,2.55
2023-01-30T09:14:23.309Z,3.30
2023-01-30T09:17:24.819Z,4.28
2023-01-30T09:20:26.370Z,3.90
2023-01-30T09:23:27.659Z,4.25
2023-01-30T09:26:29.001Z,1.80
2023-01-30T09:29:30.861Z,2.85
2023-01-30T09:32:32.136Z,4.45
2023-01-30T09:35:33.370Z,2.95
2023-01-30T09:38:34.651Z,3.50
2023-01-30T09:41:48.362Z,3.83
2023-01-30T09:45:08.622Z,3.40
2023-01-30T09:48:30.129Z,3.08
2023-01-30T09:51:46.809Z,3.50
2023-01-30T09:54:48.966Z,3.80
2023-01-30T09:57:51.520Z,3.15
2023-01-30T10:00:54.556Z,3.55
2023-01-30T10:04:16.206Z,3.05
2023-01-30T10:07:26.457Z,2.70
2023-01-30T10:10:35.601Z,3.63
2023-01-30T10:13:46.191Z,3.35
2023-01-30T10:16:55.271Z,3.00
2023-01-30T10:20:23.372Z,3.40
2023-01-30T10:23:42.045Z,3.47
2023-01-30T10:26:43.518Z,2.42
2023-01-30T10:29:48.166Z,2.45
2023-01-30T10:32:53.598Z,1.42
2023-01-30T10:36:00.980Z,1.05
2023-01-30T10:39:04.298Z,1.30
2023-01-30T10:42:11.927Z,1.25
2023-01-30T10:45:20.432Z,1.92
2023-01-30T10:48:26.438Z,1.10
2023-01-30T10:51:38.635Z,1.23
2023-01-30T10:54:55.307Z,1.30
2023-01-30T10:58:11.192Z,1.33
2023-01-30T11:01:18.235Z,1.52
2023-01-30T11:04:25.825Z,1.63
2023-01-30T11:07:29.688Z,1.52
2023-01-30T11:10:31.801Z,1.23
2023-01-30T11:13:33.342Z,1.30
2023-01-30T11:16:43.414Z,1.42
2023-01-30T11:19:44.839Z,1.75
2023-01-30T11:22:51.244Z,1.80
2023-01-30T11:26:10.182Z,1.50
2023-01-30T11:29:15.558Z,0.98
2023-01-30T11:32:23.131Z,1.20
2023-01-30T11:35:26.048Z,1.67
2023-01-30T11:38:29.057Z,1.50
2023-01-30T11:41:30.752Z,1.35
2023-01-30T11:44:33.651Z,1.13
2023-01-30T11:47:34.931Z,1.60
2023-01-30T11:50:49.806Z,1.08
2023-01-30T11:53:56.079Z,1.15
2023-01-30T11:56:58.655Z,1.35
2023-01-30T12:00:00.688Z,1.63
2023-01-30T12:03:04.675Z,1.10
2023-01-30T12:06:06.129Z,1.15
2023-01-30T12:09:27.521Z,1.38
2023-01-30T12:12:37.563Z,1.25
2023-01-30T12:15:39.885Z,1.55
2023-01-30T12:18:46.094Z,1.20
2023-01-30T12:21:59.205Z,1.13
2023-01-30T12:25:10.587Z,1.35
2023-01-30T12:31:19.726Z,1.33
2023-01-30T12:34:24.401Z,1.35
2023-01-30T12:37:47.607Z,1.13
2023-01-30T12:40:48.891Z,1.17
2023-01-30T12:43:50.261Z,0.85
2023-01-30T12:46:57.744Z,1.20
2023-01-30T12:50:02.125Z,1.45
2023-01-30T12:53:24.209Z,1.38
2023-01-30T12:56:34.442Z,1.05
2023-01-30T12:59:54.685Z,1.23
2023-01-30T13:03:14.987Z,1.58
2023-01-30T13:06:34.745Z,1.50
2023-01-30T13:09:54.842Z,1.40
2023-01-30T13:13:06.823Z,1.42
2023-01-30T13:16:20.549Z,2.00
2023-01-30T13:19:40.352Z,1.25
2023-01-30T13:23:01.551Z,1.38
2023-01-30T13:26:05.552Z,1.23
2023-01-30T13:29:13.576Z,1.35
2023-01-30T13:32:21.234Z,1.70
2023-01-30T13:35:36.892Z,1.50
2023-01-30T13:38:40.629Z,1.30
2023-01-30T13:41:51.563Z,2.00
2023-01-30T13:44:53.785Z,1.52
2023-01-30T13:48:03.644Z,1.63
2023-01-30T13:51:04.931Z,1.67
2023-01-30T13:54:32.506Z,2.00
2023-01-30T13:57:44.780Z,1.70
2023-01-30T14:00:52.777Z,1.52
2023-01-30T14:03:54.135Z,1.45
2023-01-30T14:07:08.424Z,1.70
2023-01-30T14:10:09.696Z,2.20
2023-01-30T14:13:13.109Z,1.65
2023-01-30T14:16:15.557Z,1.67
2023-01-30T14:19:35.649Z,1.80
2023-01-30T14:22:39.764Z,1.08
2023-01-30T14:25:45.194Z,1.58
2023-01-30T14:28:46.974Z,1.75
2023-01-30T14:31:49.584Z,1.52
2023-01-30T14:35:03.544Z,1.13
2023-01-30T14:38:12.128Z,1.65
2023-01-30T14:41:13.420Z,1.65
2023-01-30T14:44:34.674Z,2.35
2023-01-30T14:47:43.144Z,1.13
2023-01-30T14:50:49.176Z,1.83
2023-01-30T14:53:58.743Z,1.83
2023-01-30T14:57:22.446Z,1.73
2023-01-30T15:00:26.041Z,1.73
2023-01-30T15:03:27.794Z,1.88
2023-01-30T15:06:34.652Z,1.80
2023-01-30T15:09:36.714Z,1.70
2023-01-30T15:12:44.236Z,1.70
2023-01-30T15:16:00.564Z,1.10
2023-01-30T15:19:04.645Z,1.50
2023-01-30T15:22:11.905Z,1.35
2023-01-30T15:25:13.200Z,1.45
2023-01-30T15:28:14.488Z,1.58
2023-01-30T15:31:20.924Z,1.10
2023-01-30T15:34:22.486Z,1.42
2023-01-30T15:37:37.559Z,1.63
2023-01-30T15:40:40.614Z,1.67
2023-01-30T15:44:00.514Z,1.52
2023-01-30T15:47:02.109Z,1.83
2023-01-30T15:50:05.520Z,1.80
2023-01-30T15:53:13.136Z,1.55
2023-01-30T15:56:27.262Z,2.53
2023-01-30T15:59:34.921Z,1.63
2023-01-30T16:02:36.638Z,1.25
2023-01-30T16:05:46.324Z,1.30
2023-01-30T16:08:55.209Z,2.28
2023-01-30T16:11:56.562Z,1.95
2023-01-30T16:18:31.711Z,1.77
2023-01-30T16:21:34.927Z,2.15
2023-01-30T16:24:37.095Z,1.75
2023-01-30T16:27:38.774Z,1.48
2023-01-30T16:30:42.573Z,1.88
2023-01-30T16:33:50.574Z,1.35
2023-01-30T16:36:51.877Z,1.75
2023-01-30T16:40:04.529Z,1.52
2023-01-30T16:43:18.049Z,2.45
2023-01-30T16:46:45.366Z,1.38
2023-01-30T16:49:47.441Z,1.40
2023-01-30T16:52:54.247Z,2.25
2023-01-30T16:55:58.547Z,1.42
2023-01-30T16:59:00.754Z,1.75
2023-01-30T17:02:04.370Z,2.15
2023-01-30T17:05:17.121Z,1.92
2023-01-30T17:08:30.796Z,1.42
2023-01-30T17:11:36.144Z,2.47
2023-01-30T17:14:37.435Z,1.63
2023-01-30T17:17:39.286Z,2.08
2023-01-30T17:20:41.671Z,1.63
2023-01-30T17:23:47.886Z,1.42
2023-01-30T17:26:50.557Z,2.17
2023-01-30T17:29:52.035Z,3.42
2023-01-30T17:32:53.383Z,1.98
2023-01-30T17:35:54.690Z,2.53
2023-01-30T17:38:57.461Z,1.77
2023-01-30T17:41:58.856Z,2.97
2023-01-30T17:45:00.128Z,1.63
2023-01-30T17:48:01.790Z,2.25
2023-01-30T17:51:03.139Z,1.63
2023-01-30T17:54:04.484Z,1.83
2023-01-30T17:57:06.757Z,2.05
2023-01-30T18:00:08.459Z,2.40
2023-01-30T18:03:09.729Z,2.30
2023-01-30T18:06:14.983Z,1.88
2023-01-30T18:09:17.989Z,2.05
2023-01-30T18:12:19.256Z,2.35
2023-01-30T18:15:20.751Z,1.88
2023-01-30T18:18:22.252Z,1.75
2023-01-30T18:21:23.535Z,1.98
2023-01-30T18:24:24.950Z,2.60
2023-01-30T18:27:26.203Z,2.33
2023-01-30T18:30:27.472Z,2.63
2023-01-30T18:33:28.764Z,2.53
2023-01-30T18:36:32.774Z,2.53
2023-01-30T18:39:34.835Z,2.03
2023-01-30T18:42:36.104Z,2.17
2023-01-30T18:45:37.427Z,2.15
2023-01-30T18:48:38.822Z,2.78
2023-01-30T18:51:40.464Z,2.53
2023-01-30T18:54:43.906Z,2.28
2023-01-30T18:57:45.177Z,2.60
2023-01-30T19:00:47.246Z,1.77
2023-01-30T19:03:48.773Z,1.85
2023-01-30T19:06:50.078Z,2.38
2023-01-30T19:09:51.342Z,2.78
2023-01-30T19:13:11.375Z,2.85
2023-01-30T19:16:12.718Z,2.28
2023-01-30T19:19:14.044Z,2.83
2023-01-30T19:22:17.236Z,2.28
2023-01-30T19:25:19.506Z,2.60
2023-01-30T19:28:21.039Z,3.15
2023-01-30T19:31:22.478Z,3.13
2023-01-30T19:34:24.026Z,1.85
2023-01-30T19:37:25.509Z,2.58
2023-01-30T19:40:26.893Z,2.70
2023-01-30T19:43:28.171Z,2.17
2023-01-30T19:46:29.763Z,2.83
2023-01-30T19:49:31.624Z,3.47
2023-01-30T19:52:33.858Z,1.92
2023-01-30T19:55:35.316Z,3.05
2023-01-30T19:58:37.456Z,2.53
2023-01-30T20:01:39.990Z,2.17
2023-01-30T20:04:41.447Z,3.03
2023-01-30T20:07:42.784Z,2.78
2023-01-30T20:10:44.096Z,1.83
2023-01-30T20:13:46.505Z,3.00
2023-01-30T20:16:47.887Z,3.30
2023-01-30T20:19:49.180Z,3.40
2023-01-30T20:22:50.518Z,3.08
2023-01-30T20:25:51.842Z,2.83
2023-01-30T20:28:56.627Z,3.45
2023-01-30T20:31:58.095Z,4.00
2023-01-30T20:34:59.390Z,4.25
2023-01-30T20:38:01.830Z,3.83
2023-01-30T20:41:16.276Z,4.28
2023-01-30T20:44:17.814Z,4.32
2023-01-30T20:47:19.102Z,3.53
2023-01-30T20:50:20.972Z,3.88
2023-01-30T20:53:22.457Z,4.78
2023-01-30T20:56:24.985Z,3.22
2023-01-30T20:59:27.231Z,3.92
2023-01-30T21:02:28.561Z,3.30
2023-01-30T21:05:29.810Z,2.53
2023-01-30T21:08:31.431Z,2.55
2023-01-30T21:11:32.820Z,1.85
2023-01-30T21:14:34.158Z,2.15
2023-01-30T21:17:35.445Z,2.58
2023-01-30T21:20:36.795Z,2.92
2023-01-30T21:23:38.339Z,2.53
2023-01-30T21:26:40.963Z,2.05
2023-01-30T21:29:42.296Z,1.92
2023-01-30T21:32:43.610Z,2.03
2023-01-30T21:35:44.987Z,2.20
2023-01-30T21:39:04.822Z,2.40
2023-01-30T21:42:27.004Z,2.70
2023-01-30T21:45:28.273Z,2.40
2023-01-30T21:48:29.916Z,2.00
2023-01-30T21:51:32.113Z,2.88
2023-01-30T21:54:33.395Z,2.70
2023-01-30T21:57:34.666Z,2.95
2023-01-30T22:00:36.679Z,4.20
2023-01-30T22:03:38.188Z,4.30
2023-01-30T22:06:40.216Z,3.15
2023-01-30T22:09:41.435Z,2.88
2023-01-30T22:12:42.752Z,2.60
2023-01-30T22:15:44.148Z,1.90
2023-01-30T22:18:45.444Z,2.72
2023-01-30T22:21:46.732Z,2.20
2023-01-30T22:24:47.993Z,2.83
2023-01-30T22:27:49.323Z,2.38
2023-01-30T22:30:50.728Z,2.38
2023-01-30T22:33:53.721Z,2.63
2023-01-30T22:36:55.391Z,2.78
2023-01-30T22:39:57.100Z,2.08
2023-01-30T22:42:58.394Z,2.83
2023-01-30T22:46:00.877Z,2.75
2023-01-30T22:49:03.015Z,2.08
2023-01-30T22:52:04.292Z,2.72
2023-01-30T22:55:05.795Z,2.75
2023-01-30T22:58:07.086Z,2.67
2023-01-30T23:01:12.836Z,2.85
2023-01-30T23:04:21.641Z,2.47
2023-01-30T23:07:22.972Z,3.17
2023-01-30T23:10:24.242Z,2.15
2023-01-30T23:13:25.556Z,2.85
2023-01-30T23:16:27.553Z,2.80
2023-01-30T23:19:28.912Z,2.00
2023-01-30T23:22:30.356Z,3.30
2023-01-30T23:25:31.693Z,2.25
2023-01-30T23:28:33.509Z,2.47
2023-01-30T23:31:35.502Z,3.13
2023-01-30T23:34:36.811Z,2.67
2023-01-30T23:37:56.875Z,2.45
2023-01-30T23:41:13.110Z,2.65
2023-01-30T23:44:14.394Z,2.60
2023-01-30T23:47:15.674Z,2.53
2023-01-30T23:50:17.072Z,2.05
2023-01-30T23:53:18.311Z,2.10
2023-01-30T23:56:20.637Z,2.47
2023-01-30T23:59:21.874Z,2.30
